createdAt,value
2017-09-21T00:01:56.609Z,97572.44
2017-09-21T00:04:24.168Z,97572.46
2017-09-21T00:06:51.852Z,97567.01
2017-09-21T00:09:19.452Z,97557.23
2017-09-21T00:11:47.152Z,97563.55
2017-09-21T00:14:14.798Z,97562.28
2017-09-21T00:16:42.391Z,97555.08
2017-09-21T00:19:09.969Z,97558.45
2017-09-21T00:21:37.945Z,97560.94
2017-09-21T00:24:05.510Z,97553.33
2017-09-21T00:26:33.093Z,97550.31
2017-09-21T00:29:00.659Z,97549.44
2017-09-21T00:31:28.358Z,97551.58
2017-09-21T00:33:55.925Z,97544.75
2017-09-21T00:36:23.553Z,97544.34
2017-09-21T00:38:51.153Z,97548.13
2017-09-21T00:41:18.759Z,97548.51
2017-09-21T00:43:46.656Z,97554.75
2017-09-21T00:46:14.266Z,97548.78
2017-09-21T00:48:43.004Z,97546.66
2017-09-21T00:51:10.584Z,97542.82
2017-09-21T00:53:38.147Z,97544.50
2017-09-21T00:56:05.725Z,97544.06
2017-09-21T00:58:33.304Z,97549.98
2017-09-21T01:01:00.955Z,97545.77
2017-09-21T01:03:29.973Z,97550.86
2017-09-21T01:05:57.819Z,97545.31
2017-09-21T01:08:25.531Z,97541.05
2017-09-21T01:10:53.175Z,97536.81
2017-09-21T01:13:20.757Z,97546.52
2017-09-21T01:15:48.314Z,97541.05
2017-09-21T01:18:16.242Z,97545.26
2017-09-21T01:20:43.821Z,97552.84
2017-09-21T01:23:11.482Z,97552.38
2017-09-21T01:25:39.026Z,97554.89
2017-09-21T01:28:06.902Z,97549.77
2017-09-21T01:30:34.456Z,97556.11
2017-09-21T01:33:02.024Z,97552.73
2017-09-21T01:35:29.614Z,97549.73
2017-09-21T01:37:57.170Z,97544.16
2017-09-21T01:40:24.774Z,97544.91
2017-09-21T01:42:52.340Z,97547.42
2017-09-21T01:45:19.940Z,97547.37
2017-09-21T01:47:47.502Z,97547.83
2017-09-21T01:50:15.413Z,97540.19
2017-09-21T01:52:42.961Z,97543.13
2017-09-21T01:55:10.514Z,97540.97
2017-09-21T01:57:38.092Z,97540.05
2017-09-21T02:00:05.775Z,97549.73
2017-09-21T02:02:33.354Z,97550.14
2017-09-21T02:05:00.917Z,97552.22
2017-09-21T02:07:28.490Z,97543.72
2017-09-21T02:09:56.064Z,97550.47
2017-09-21T02:12:24.176Z,97543.70
2017-09-21T02:14:51.735Z,97544.91
2017-09-21T02:17:19.314Z,97545.72
2017-09-21T02:19:47.077Z,97538.92
2017-09-21T02:22:14.657Z,97539.73
2017-09-21T02:24:42.276Z,97532.88
2017-09-21T02:27:09.841Z,97533.24
2017-09-21T02:29:38.016Z,97520.13
2017-09-21T02:32:05.590Z,97523.08
2017-09-21T02:34:33.444Z,97518.81
2017-09-21T02:37:01.009Z,97516.22
2017-09-21T02:39:28.605Z,97518.30
2017-09-21T02:41:56.194Z,97513.66
2017-09-21T02:44:23.775Z,97517.84
2017-09-21T02:46:51.357Z,97529.16
2017-09-21T02:49:18.910Z,97518.13
2017-09-21T02:51:46.501Z,97524.81
2017-09-21T02:54:14.270Z,97524.28
2017-09-21T02:56:42.197Z,97514.13
2017-09-21T02:59:09.756Z,97514.88
2017-09-21T03:01:37.350Z,97519.02
2017-09-21T03:04:06.400Z,97520.25
2017-09-21T03:06:33.981Z,97511.30
2017-09-21T03:09:01.559Z,97512.13
2017-09-21T03:11:29.127Z,97510.41
2017-09-21T03:13:56.715Z,97509.48
2017-09-21T03:16:24.284Z,97501.02
2017-09-21T03:18:52.179Z,97501.30
2017-09-21T03:21:22.956Z,97503.66
2017-09-21T03:23:51.799Z,97503.19
2017-09-21T03:26:19.370Z,97502.20
2017-09-21T03:28:47.071Z,97497.42
2017-09-21T03:31:14.654Z,97497.27
2017-09-21T03:33:42.212Z,97497.20
2017-09-21T03:36:09.791Z,97491.20
2017-09-21T03:38:37.397Z,97488.28
2017-09-21T03:41:05.407Z,97484.32
2017-09-21T03:43:32.975Z,97481.73
2017-09-21T03:46:00.738Z,97481.60
2017-09-21T03:48:28.293Z,97484.00
2017-09-21T03:50:55.915Z,97484.77
2017-09-21T03:53:23.519Z,97484.67
2017-09-21T03:55:51.065Z,97491.83
2017-09-21T03:58:18.669Z,97492.26
2017-09-21T04:00:46.238Z,97492.26
2017-09-21T04:03:14.678Z,97496.45
2017-09-21T04:05:43.852Z,97499.78
2017-09-21T04:08:11.391Z,97505.61
2017-09-21T04:10:39.349Z,97502.55
2017-09-21T04:13:06.922Z,97507.27
2017-09-21T04:15:34.508Z,97510.67
2017-09-21T04:18:02.052Z,97503.95
2017-09-21T04:20:29.616Z,97501.84
2017-09-21T04:22:57.177Z,97509.04
2017-09-21T04:25:24.772Z,97510.41
2017-09-21T04:27:52.345Z,97504.94
2017-09-21T04:30:20.339Z,97507.04
2017-09-21T04:32:47.919Z,97501.95
2017-09-21T04:35:15.493Z,97506.98
2017-09-21T04:37:43.757Z,97503.22
2017-09-21T04:40:11.350Z,97507.80
2017-09-21T04:42:39.092Z,97515.00
2017-09-21T04:45:06.751Z,97507.38
2017-09-21T04:47:35.274Z,97509.88
2017-09-21T04:50:02.813Z,97509.88
2017-09-21T04:52:30.817Z,97513.63
2017-09-21T04:54:58.387Z,97508.11
2017-09-21T04:57:25.955Z,97514.43
2017-09-21T04:59:53.551Z,97513.53
2017-09-21T05:02:21.116Z,97520.33
2017-09-21T05:04:48.689Z,97511.77
2017-09-21T05:07:16.284Z,97518.95
2017-09-21T05:09:43.864Z,97517.76
2017-09-21T05:12:11.428Z,97519.92
2017-09-21T05:14:39.085Z,97522.45
2017-09-21T05:17:06.649Z,97522.42
2017-09-21T05:19:35.412Z,97523.58
2017-09-21T05:22:02.993Z,97527.74
2017-09-21T05:24:30.551Z,97526.44
2017-09-21T05:26:58.676Z,97525.97
2017-09-21T05:29:26.251Z,97527.27
2017-09-21T05:31:53.832Z,97524.71
2017-09-21T05:34:21.396Z,97523.52
2017-09-21T05:36:49.076Z,97523.55
2017-09-21T05:39:16.641Z,97529.11
2017-09-21T05:44:18.046Z,97531.14
2017-09-21T05:46:45.944Z,97534.13
2017-09-21T05:49:13.510Z,97539.30
2017-09-21T05:51:41.067Z,97538.26
2017-09-21T05:54:08.642Z,97546.28
2017-09-21T05:56:36.229Z,97542.69
2017-09-21T05:59:03.794Z,97542.86
2017-09-21T06:01:31.358Z,97544.63
2017-09-21T06:03:59.275Z,97544.73
2017-09-21T06:06:26.841Z,97541.03
2017-09-21T06:08:54.446Z,97547.83
2017-09-21T06:11:22.058Z,97533.91
2017-09-21T06:13:49.628Z,97544.45
2017-09-21T06:16:17.224Z,97548.22
2017-09-21T06:18:44.824Z,97545.33
2017-09-21T06:21:12.432Z,97550.95
2017-09-21T06:23:41.012Z,97552.75
2017-09-21T06:26:08.537Z,97551.66
2017-09-21T06:28:36.079Z,97555.86
2017-09-21T06:31:04.090Z,97562.68
2017-09-21T06:33:31.666Z,97570.00
2017-09-21T06:35:59.233Z,97570.61
2017-09-21T06:38:26.828Z,97574.07
2017-09-21T06:40:54.368Z,97575.40
2017-09-21T06:43:22.044Z,97577.53
2017-09-21T06:45:49.650Z,97579.63
2017-09-21T06:48:17.326Z,97572.13
2017-09-21T06:50:44.900Z,97579.30
2017-09-21T06:53:12.485Z,97584.73
2017-09-21T06:55:40.032Z,97586.03
2017-09-21T06:58:07.592Z,97578.63
2017-09-21T07:00:36.121Z,97585.98
2017-09-21T07:03:03.665Z,97583.67
2017-09-21T07:05:31.246Z,97583.06
2017-09-21T07:07:58.805Z,97582.23
2017-09-21T07:10:26.399Z,97574.29
2017-09-21T07:12:54.565Z,97578.12
2017-09-21T07:15:22.600Z,97581.61
2017-09-21T07:17:50.751Z,97578.42
2017-09-21T07:20:18.309Z,97570.94
2017-09-21T07:22:45.878Z,97575.33
2017-09-21T07:25:13.610Z,97582.30
2017-09-21T07:27:41.219Z,97582.09
2017-09-21T07:30:08.791Z,97579.27
2017-09-21T07:32:36.397Z,97578.14
2017-09-21T07:35:03.982Z,97568.25
2017-09-21T07:37:31.857Z,97568.80
2017-09-21T07:39:59.429Z,97570.22
2017-09-21T07:42:27.301Z,97573.67
2017-09-21T07:44:54.867Z,97574.67
2017-09-21T07:47:22.442Z,97572.28
2017-09-21T07:49:50.017Z,97569.11
2017-09-21T07:52:17.598Z,97572.17
2017-09-21T07:54:45.180Z,97573.27
2017-09-21T07:57:12.745Z,97571.22
2017-09-21T07:59:40.724Z,97577.73
2017-09-21T08:02:08.363Z,97560.55
2017-09-21T08:04:35.936Z,97565.80
2017-09-21T08:07:03.539Z,97570.30
2017-09-21T08:09:31.101Z,97564.20
2017-09-21T08:11:58.686Z,97567.87
2017-09-21T08:14:26.299Z,97567.20
2017-09-21T08:16:54.246Z,97566.29
2017-09-21T08:19:21.963Z,97567.52
2017-09-21T08:21:49.532Z,97572.16
2017-09-21T08:24:17.125Z,97568.41
2017-09-21T08:26:44.689Z,97566.88
2017-09-21T08:29:12.277Z,97578.89
2017-09-21T08:31:39.867Z,97570.95
2017-09-21T08:34:07.494Z,97572.67
2017-09-21T08:36:35.194Z,97578.24
2017-09-21T08:39:03.065Z,97576.25
2017-09-21T08:41:30.625Z,97572.56
2017-09-21T08:43:58.186Z,97575.67
2017-09-21T08:46:25.759Z,97578.72
2017-09-21T08:48:53.321Z,97579.20
2017-09-21T08:51:20.927Z,97579.31
2017-09-21T08:53:48.487Z,97577.25
2017-09-21T08:56:16.093Z,97579.45
2017-09-21T08:58:43.673Z,97579.95
2017-09-21T09:01:11.343Z,97582.65
2017-09-21T09:03:38.884Z,97579.63
2017-09-21T09:06:06.788Z,97580.59
2017-09-21T09:08:34.349Z,97572.20
2017-09-21T09:11:01.913Z,97571.35
2017-09-21T09:13:29.524Z,97571.07
2017-09-21T09:15:57.092Z,97570.30
2017-09-21T09:18:24.893Z,97566.95
2017-09-21T09:20:52.435Z,97570.39
2017-09-21T09:23:20.026Z,97568.29
2017-09-21T09:25:47.644Z,97561.56
2017-09-21T09:28:15.639Z,97562.45
2017-09-21T09:30:43.338Z,97557.03
2017-09-21T09:33:10.956Z,97556.30
2017-09-21T09:35:38.546Z,97555.91
2017-09-21T09:38:06.147Z,97550.45
2017-09-21T09:40:33.715Z,97551.36
2017-09-21T09:43:01.292Z,97551.83
2017-09-21T09:45:28.880Z,97547.55
2017-09-21T09:47:56.479Z,97548.39
2017-09-21T09:50:24.514Z,97546.30
2017-09-21T09:52:52.135Z,97547.19
2017-09-21T09:55:19.719Z,97543.38
2017-09-21T09:57:47.308Z,97546.84
2017-09-21T10:00:14.899Z,97543.90
2017-09-21T10:02:42.512Z,97543.04
2017-09-21T10:05:10.109Z,97546.91
2017-09-21T10:07:37.747Z,97542.70
2017-09-21T10:10:05.314Z,97534.20
2017-09-21T10:12:32.926Z,97532.09
2017-09-21T10:15:00.552Z,97519.35
2017-09-21T10:17:28.489Z,97523.59
2017-09-21T10:19:56.086Z,97517.60
2017-09-21T10:22:23.650Z,97522.30
2017-09-21T10:24:51.233Z,97525.28
2017-09-21T10:27:18.787Z,97522.27
2017-09-21T10:29:46.393Z,97526.95
2017-09-21T10:32:13.972Z,97529.48
2017-09-21T10:34:41.545Z,97524.78
2017-09-21T10:37:09.104Z,97517.17
2017-09-21T10:39:37.048Z,97518.89
2017-09-21T10:42:04.636Z,97521.03
2017-09-21T10:44:32.221Z,97514.66
2017-09-21T10:46:59.882Z,97513.38
2017-09-21T10:49:27.449Z,97515.90
2017-09-21T10:51:55.729Z,97518.45
2017-09-21T10:54:23.288Z,97511.61
2017-09-21T10:56:50.882Z,97509.48
2017-09-21T10:59:18.454Z,97510.34
2017-09-21T11:01:46.411Z,97507.78
2017-09-21T11:04:13.971Z,97502.27
2017-09-21T11:06:41.561Z,97499.72
2017-09-21T11:09:09.173Z,97503.14
2017-09-21T11:11:36.735Z,97498.88
2017-09-21T11:14:04.318Z,97492.86
2017-09-21T11:16:31.900Z,97488.93
2017-09-21T11:18:59.455Z,97489.72
2017-09-21T11:21:28.192Z,97489.23
2017-09-21T11:23:56.516Z,97486.14
2017-09-21T11:26:24.189Z,97484.33
2017-09-21T11:28:51.767Z,97483.00
2017-09-21T11:31:19.368Z,97474.77
2017-09-21T11:33:46.938Z,97476.52
2017-09-21T11:36:15.643Z,97478.73
2017-09-21T11:38:43.233Z,97475.83
2017-09-21T11:41:10.821Z,97475.47
2017-09-21T11:43:39.507Z,97476.39
2017-09-21T11:46:07.166Z,97482.06
2017-09-21T11:48:34.764Z,97474.03
2017-09-21T11:51:02.635Z,97475.35
2017-09-21T11:53:30.217Z,97477.94
2017-09-21T11:55:57.791Z,97475.80
2017-09-21T11:58:25.410Z,97471.88
2017-09-21T12:00:52.985Z,97477.38
2017-09-21T12:03:20.589Z,97464.55
2017-09-21T12:05:49.027Z,97462.33
2017-09-21T12:08:16.635Z,97459.25
2017-09-21T12:10:44.213Z,97447.98
2017-09-21T12:13:11.821Z,97452.55
2017-09-21T12:15:39.421Z,97450.34
2017-09-21T12:18:07.024Z,97449.47
2017-09-21T12:20:34.626Z,97448.16
2017-09-21T12:23:02.188Z,97442.06
2017-09-21T12:25:30.912Z,97444.62
2017-09-21T12:27:58.450Z,97439.52
2017-09-21T12:30:26.069Z,97436.50
2017-09-21T12:32:53.647Z,97438.05
2017-09-21T12:35:21.218Z,97434.55
2017-09-21T12:37:48.776Z,97434.97
2017-09-21T12:40:16.687Z,97425.99
2017-09-21T12:42:44.247Z,97428.25
2017-09-21T12:45:12.542Z,97420.58
2017-09-21T12:47:40.134Z,97416.44
2017-09-21T12:50:07.688Z,97416.11
2017-09-21T12:52:35.784Z,97418.45
2017-09-21T12:55:03.345Z,97416.80
2017-09-21T12:57:33.764Z,97419.91
2017-09-21T13:00:01.341Z,97419.09
2017-09-21T13:02:28.916Z,97419.59
2017-09-21T13:04:56.582Z,97417.97
2017-09-21T13:07:24.121Z,97421.42
2017-09-21T13:09:51.691Z,97421.41
2017-09-21T13:12:19.418Z,97419.30
2017-09-21T13:14:47.018Z,97420.19
2017-09-21T13:17:14.571Z,97413.79
2017-09-21T13:19:42.663Z,97416.35
2017-09-21T13:22:10.241Z,97412.56
2017-09-21T13:24:39.130Z,97421.56
2017-09-21T13:27:07.778Z,97415.18
2017-09-21T13:29:35.369Z,97417.33
2017-09-21T13:32:02.969Z,97412.23
2017-09-21T13:34:30.544Z,97418.19
2017-09-21T13:36:58.120Z,97419.08
2017-09-21T13:39:25.834Z,97419.09
2017-09-21T13:41:53.676Z,97419.09
2017-09-21T13:44:21.568Z,97414.81
2017-09-21T13:46:49.145Z,97409.28
2017-09-21T13:49:16.746Z,97409.72
2017-09-21T13:51:44.337Z,97405.84
2017-09-21T13:54:11.952Z,97405.80
2017-09-21T13:56:39.679Z,97404.53
2017-09-21T13:59:07.297Z,97401.94
2017-09-21T14:01:34.871Z,97403.97
2017-09-21T14:04:02.700Z,97397.89
2017-09-21T14:06:30.268Z,97395.11
2017-09-21T14:08:57.827Z,97394.42
2017-09-21T14:11:25.415Z,97389.95
2017-09-21T14:13:53.011Z,97387.66
2017-09-21T14:16:20.597Z,97388.61
2017-09-21T14:18:48.220Z,97391.00
2017-09-21T14:21:15.800Z,97389.08
2017-09-21T14:23:43.521Z,97382.72
2017-09-21T14:26:11.120Z,97383.16
2017-09-21T14:28:38.694Z,97380.70
2017-09-21T14:31:06.638Z,97379.91
2017-09-21T14:33:34.222Z,97376.72
2017-09-21T14:36:01.794Z,97371.05
2017-09-21T14:38:29.373Z,97364.16
2017-09-21T14:40:56.933Z,97364.52
2017-09-21T14:43:24.526Z,97365.14
2017-09-21T14:45:52.063Z,97358.02
2017-09-21T14:48:19.666Z,97359.77
2017-09-21T14:50:47.244Z,97361.13
2017-09-21T14:53:15.185Z,97356.62
2017-09-21T14:55:42.734Z,97356.22
2017-09-21T14:58:10.300Z,97365.14
2017-09-21T15:00:37.885Z,97351.24
2017-09-21T15:03:05.442Z,97353.41
2017-09-21T15:05:33.013Z,97351.41
2017-09-21T15:08:00.760Z,97350.69
2017-09-21T15:10:28.330Z,97357.92
2017-09-21T15:12:55.879Z,97352.14
2017-09-21T15:15:23.849Z,97356.14
2017-09-21T15:17:51.419Z,97359.34
2017-09-21T15:20:19.010Z,97359.42
2017-09-21T15:22:46.613Z,97359.53
2017-09-21T15:25:14.159Z,97364.27
2017-09-21T15:27:41.938Z,97362.63
2017-09-21T15:30:09.717Z,97363.16
2017-09-21T15:32:37.356Z,97369.19
2017-09-21T15:35:05.036Z,97365.00
2017-09-21T15:37:33.005Z,97366.41
2017-09-21T15:40:00.594Z,97365.22
2017-09-21T15:42:28.183Z,97364.92
2017-09-21T15:44:55.816Z,97367.11
2017-09-21T15:47:23.385Z,97369.69
2017-09-21T15:49:51.138Z,97362.92
2017-09-21T15:52:18.819Z,97369.76
2017-09-21T15:54:46.759Z,97372.33
2017-09-21T15:57:14.334Z,97367.65
2017-09-21T15:59:41.903Z,97364.25
2017-09-21T16:02:09.628Z,97372.41
2017-09-21T16:04:37.210Z,97370.73
2017-09-21T16:07:04.773Z,97370.32
2017-09-21T16:09:32.316Z,97368.24
2017-09-21T16:12:00.290Z,97369.53
2017-09-21T16:14:27.893Z,97370.86
2017-09-21T16:16:55.475Z,97376.86
2017-09-21T16:19:23.417Z,97370.50
2017-09-21T16:21:51.173Z,97366.67
2017-09-21T16:24:18.774Z,97367.98
2017-09-21T16:26:46.374Z,97374.38
2017-09-21T16:29:14.963Z,97368.42
2017-09-21T16:31:43.930Z,97367.59
2017-09-21T16:34:12.317Z,97368.03
2017-09-21T16:36:40.379Z,97365.06
2017-09-21T16:39:08.166Z,97365.52
2017-09-21T16:41:36.301Z,97365.08
2017-09-21T16:44:07.175Z,97363.80
2017-09-21T16:46:34.838Z,97361.70
2017-09-21T16:49:02.459Z,97362.13
2017-09-21T16:51:30.075Z,97363.40
2017-09-21T16:53:57.684Z,97367.23
2017-09-21T16:56:25.696Z,97371.52
2017-09-21T16:58:53.289Z,97366.83
2017-09-21T17:01:20.904Z,97377.48
2017-09-21T17:03:48.485Z,97368.95
2017-09-21T17:06:16.021Z,97366.81
2017-09-21T17:08:43.783Z,97368.11
2017-09-21T17:11:11.345Z,97364.70
2017-09-21T17:13:38.948Z,97361.28
2017-09-21T17:16:06.522Z,97369.34
2017-09-21T17:18:34.522Z,97371.05
2017-09-21T17:21:02.117Z,97368.90
2017-09-21T17:23:29.702Z,97365.86
2017-09-21T17:25:57.325Z,97372.24
2017-09-21T17:28:24.905Z,97369.23
2017-09-21T17:30:52.480Z,97369.22
2017-09-21T17:33:20.063Z,97367.49
2017-09-21T17:35:47.664Z,97370.44
2017-09-21T17:38:15.241Z,97372.56
2017-09-21T17:40:44.123Z,97373.40
2017-09-21T17:43:11.692Z,97380.58
2017-09-21T17:45:39.219Z,97375.89
2017-09-21T17:48:06.788Z,97380.99
2017-09-21T17:50:34.348Z,97385.22
2017-09-21T17:53:01.961Z,97392.86
2017-09-21T17:55:29.521Z,97383.48
2017-09-21T17:57:57.138Z,97390.26
2017-09-21T18:00:24.734Z,97391.92
2017-09-21T18:02:52.327Z,97399.10
2017-09-21T18:05:19.960Z,97403.75
2017-09-21T18:07:47.533Z,97401.15
2017-09-21T18:10:15.121Z,97405.78
2017-09-21T18:12:42.756Z,97406.62
2017-09-21T18:15:10.379Z,97403.58
2017-09-21T18:17:38.008Z,97408.22
2017-09-21T18:20:06.000Z,97401.82
2017-09-21T18:22:34.384Z,97405.58
2017-09-21T18:25:01.953Z,97411.05
2017-09-21T18:27:31.270Z,97410.16
2017-09-21T18:29:58.859Z,97405.05
2017-09-21T18:32:26.472Z,97405.39
2017-09-21T18:34:54.062Z,97404.96
2017-09-21T18:37:21.660Z,97410.42
2017-09-21T18:39:49.280Z,97409.11
2017-09-21T18:42:17.977Z,97409.92
2017-09-21T18:44:45.696Z,97408.20
2017-09-21T18:47:13.767Z,97409.03
2017-09-21T18:49:41.368Z,97412.83
2017-09-21T18:52:09.020Z,97415.32
2017-09-21T18:54:36.642Z,97415.31
2017-09-21T18:57:04.272Z,97418.25
2017-09-21T18:59:31.904Z,97416.52
2017-09-21T19:02:00.149Z,97414.36
2017-09-21T19:04:27.772Z,97409.19
2017-09-21T19:06:55.444Z,97412.16
2017-09-21T19:09:24.167Z,97404.47
2017-09-21T19:11:51.759Z,97405.27
2017-09-21T19:14:19.361Z,97403.95
2017-09-21T19:16:46.955Z,97413.64
2017-09-21T19:19:14.911Z,97417.36
2017-09-21T19:21:42.759Z,97414.77
2017-09-21T19:24:10.949Z,97415.84
2017-09-21T19:26:38.576Z,97416.14
2017-09-21T19:29:06.275Z,97409.73
2017-09-21T19:31:34.165Z,97414.80
2017-09-21T19:34:01.938Z,97410.09
2017-09-21T19:36:29.717Z,97406.69
2017-09-21T19:38:57.344Z,97406.16
2017-09-21T19:41:24.981Z,97406.98
2017-09-21T19:43:52.594Z,97405.24
2017-09-21T19:46:20.542Z,97405.66
2017-09-21T19:48:48.314Z,97404.33
2017-09-21T19:51:15.898Z,97405.54
2017-09-21T19:53:43.491Z,97408.41
2017-09-21T19:56:11.074Z,97408.78
2017-09-21T19:58:39.052Z,97413.86
2017-09-21T20:01:06.617Z,97419.24
2017-09-21T20:03:34.208Z,97419.89
2017-09-21T20:06:03.358Z,97424.05
2017-09-21T20:08:31.055Z,97423.61
2017-09-21T20:10:58.785Z,97424.02
2017-09-21T20:13:26.366Z,97423.59
2017-09-21T20:15:54.269Z,97413.41
2017-09-21T20:18:21.832Z,97420.13
2017-09-21T20:20:49.783Z,97421.76
2017-09-21T20:23:17.763Z,97424.30
2017-09-21T20:25:45.356Z,97425.12
2017-09-21T20:28:12.951Z,97432.30
2017-09-21T20:30:40.919Z,97428.45
2017-09-21T20:33:09.646Z,97428.84
2017-09-21T20:35:37.352Z,97438.09
2017-09-21T20:38:05.706Z,97435.08
2017-09-21T20:40:33.340Z,97433.77
2017-09-21T20:43:00.922Z,97437.12
2017-09-21T20:45:28.651Z,97428.16
2017-09-21T20:47:56.740Z,97428.51
2017-09-21T20:50:24.321Z,97421.28
2017-09-21T20:52:51.886Z,97422.91
2017-09-21T20:55:19.812Z,97427.10
2017-09-21T20:57:47.389Z,97423.25
2017-09-21T21:00:15.550Z,97418.57
2017-09-21T21:02:43.491Z,97426.97
2017-09-21T21:05:11.053Z,97420.15
2017-09-21T21:07:38.614Z,97423.48
2017-09-21T21:10:06.582Z,97423.75
2017-09-21T21:12:34.162Z,97430.75
2017-09-21T21:15:01.741Z,97429.45
2017-09-21T21:17:29.305Z,97428.98
2017-09-21T21:19:56.882Z,97429.81
2017-09-21T21:22:24.776Z,97427.61
2017-09-21T21:24:52.359Z,97420.84
2017-09-21T21:27:19.942Z,97420.33
2017-09-21T21:29:47.880Z,97422.80
2017-09-21T21:32:15.457Z,97426.55
2017-09-21T21:34:43.023Z,97427.67
2017-09-21T21:37:10.871Z,97428.06
2017-09-21T21:39:38.437Z,97431.83
2017-09-21T21:42:05.997Z,97440.25
2017-09-21T21:44:33.582Z,97423.69
2017-09-21T21:47:01.172Z,97425.77
2017-09-21T21:49:28.773Z,97424.42
2017-09-21T21:51:56.398Z,97426.06
2017-09-21T21:54:24.275Z,97430.27
2017-09-21T21:56:51.855Z,97424.72
2017-09-21T21:59:19.418Z,97435.27
2017-09-21T22:01:47.185Z,97438.17
2017-09-21T22:04:14.749Z,97435.64
2017-09-21T22:06:42.678Z,97432.62
2017-09-21T22:09:10.258Z,97438.50
2017-09-21T22:11:37.818Z,97437.17
2017-09-21T22:14:05.699Z,97434.59
2017-09-21T22:16:33.262Z,97443.83
2017-09-21T22:19:00.845Z,97438.67
2017-09-21T22:21:28.697Z,97439.91
2017-09-21T22:23:56.269Z,97441.58
2017-09-21T22:26:23.846Z,97442.39
2017-09-21T22:28:51.703Z,97441.93
2017-09-21T22:31:19.289Z,97439.77
2017-09-21T22:33:46.846Z,97442.70
2017-09-21T22:36:14.444Z,97436.78
2017-09-21T22:38:42.049Z,97443.48
2017-09-21T22:41:09.911Z,97432.00
2017-09-21T22:43:37.470Z,97436.11
2017-09-21T22:46:05.231Z,97443.62
2017-09-21T22:48:32.814Z,97443.54
2017-09-21T22:51:00.401Z,97443.53
2017-09-21T22:53:28.354Z,97446.53
2017-09-21T22:55:55.911Z,97444.02
2017-09-21T22:58:23.465Z,97441.49
2017-09-21T23:00:51.355Z,97438.56
2017-09-21T23:03:18.931Z,97442.30
2017-09-21T23:05:46.509Z,97428.31
2017-09-21T23:08:14.088Z,97430.36
2017-09-21T23:10:41.648Z,97434.53
2017-09-21T23:13:10.965Z,97437.41
2017-09-21T23:15:38.700Z,97430.61
2017-09-21T23:18:06.271Z,97439.78
2017-09-21T23:20:34.135Z,97437.53
2017-09-21T23:23:01.711Z,97440.77
2017-09-21T23:25:29.435Z,97447.87
2017-09-21T23:27:57.298Z,97439.72
2017-09-21T23:30:24.858Z,97450.67
2017-09-21T23:32:52.424Z,97449.84
2017-09-21T23:35:20.001Z,97446.88
2017-09-21T23:37:47.571Z,97443.85
2017-09-21T23:40:15.467Z,97443.02
2017-09-21T23:42:43.007Z,97440.05
2017-09-21T23:45:10.574Z,97443.82
2017-09-21T23:47:38.505Z,97448.84
2017-09-21T23:50:06.071Z,97448.38
2017-09-21T23:52:33.647Z,97445.02
2017-09-21T23:55:01.583Z,97447.09
2017-09-21T23:57:29.151Z,97446.98
2017-09-21T23:59:56.709Z,97448.16
